sensor_id;sensor_type;location;lat;lon;timestamp;pressure;altitude;pressure_sealevel;temperature;humidity
11198;BME280;5655;48.744;9.162;2023-07-28T00:00:47;95471.34;;;20.21;100.00
11198;BME280;5655;48.744;9.162;2023-07-28T00:03:12;95468.94;;;20.23;100.00
11198;BME280;5655;48.744;9.162;2023-07-28T00:05:38;95470.97;;;20.01;100.00
11198;BME280;5655;48.744;9.162;2023-07-28T00:08:03;95477.31;;;20.07;100.00
11198;BME280;5655;48.744;9.162;2023-07-28T00:10:29;95467.19;;;20.08;100.00
11198;BME280;5655;48.744;9.162;2023-07-28T00:12:54;95479.31;;;20.16;100.00
11198;BME280;5655;48.744;9.162;2023-07-28T00:15:19;95472.00;;;20.04;100.00
11198;BME280;5655;48.744;9.162;2023-07-28T00:17:45;95471.28;;;20.12;100.00
11198;BME280;5655;48.744;9.162;2023-07-28T00:20:10;95471.88;;;20.07;100.00
11198;BME280;5655;48.744;9.162;2023-07-28T00:22:36;95479.78;;;20.14;100.00
11198;BME280;5655;48.744;9.162;2023-07-28T00:25:01;95475.34;;;20.08;100.00
11198;BME280;5655;48.744;9.162;2023-07-28T00:27:27;95470.19;;;20.01;100.00
11198;BME280;5655;48.744;9.162;2023-07-28T00:29:52;95465.78;;;19.94;100.00
11198;BME280;5655;48.744;9.162;2023-07-28T00:32:17;95456.28;;;19.68;100.00
11198;BME280;5655;48.744;9.162;2023-07-28T00:34:43;95470.91;;;19.92;100.00
11198;BME280;5655;48.744;9.162;2023-07-28T00:37:08;95462.75;;;19.92;100.00
11198;BME280;5655;48.744;9.162;2023-07-28T00:39:34;95451.97;;;19.79;100.00
11198;BME280;5655;48.744;9.162;2023-07-28T00:41:59;95461.19;;;19.82;100.00
11198;BME280;5655;48.744;9.162;2023-07-28T00:44:24;95454.88;;;19.63;100.00
11198;BME280;5655;48.744;9.162;2023-07-28T00:46:50;95456.50;;;19.82;100.00
11198;BME280;5655;48.744;9.162;2023-07-28T00:49:16;95462.44;;;19.90;100.00
11198;BME280;5655;48.744;9.162;2023-07-28T00:51:41;95458.59;;;19.78;100.00
11198;BME280;5655;48.744;9.162;2023-07-28T00:54:06;95453.31;;;19.75;100.00
11198;BME280;5655;48.744;9.162;2023-07-28T00:56:32;95458.41;;;19.73;100.00
11198;BME280;5655;48.744;9.162;2023-07-28T00:58:58;95464.84;;;19.88;100.00
11198;BME280;5655;48.744;9.162;2023-07-28T01:01:23;95456.34;;;19.55;100.00
11198;BME280;5655;48.744;9.162;2023-07-28T01:03:50;95453.53;;;19.59;100.00
11198;BME280;5655;48.744;9.162;2023-07-28T01:06:24;95453.25;;;19.66;100.00
11198;BME280;5655;48.744;9.162;2023-07-28T01:09:02;95441.19;;;19.67;100.00
11198;BME280;5655;48.744;9.162;2023-07-28T01:11:30;95456.66;;;19.79;100.00
11198;BME280;5655;48.744;9.162;2023-07-28T01:13:56;95457.84;;;19.78;100.00
11198;BME280;5655;48.744;9.162;2023-07-28T01:16:21;95447.19;;;19.62;100.00
11198;BME280;5655;48.744;9.162;2023-07-28T01:18:47;95436.56;;;19.55;100.00
11198;BME280;5655;48.744;9.162;2023-07-28T01:21:25;95443.53;;;19.56;100.00
11198;BME280;5655;48.744;9.162;2023-07-28T01:24:29;95433.84;;;19.45;100.00
11198;BME280;5655;48.744;9.162;2023-07-28T01:26:58;95435.09;;;19.54;100.00
11198;BME280;5655;48.744;9.162;2023-07-28T01:29:24;95443.41;;;19.59;100.00
11198;BME280;5655;48.744;9.162;2023-07-28T01:31:51;95436.84;;;19.47;100.00
11198;BME280;5655;48.744;9.162;2023-07-28T01:34:16;95439.63;;;19.57;100.00
11198;BME280;5655;48.744;9.162;2023-07-28T01:36:42;95433.84;;;19.45;100.00
11198;BME280;5655;48.744;9.162;2023-07-28T01:39:07;95434.47;;;19.50;100.00
11198;BME280;5655;48.744;9.162;2023-07-28T01:41:32;95433.44;;;19.56;100.00
11198;BME280;5655;48.744;9.162;2023-07-28T01:43:57;95426.28;;;19.06;100.00
11198;BME280;5655;48.744;9.162;2023-07-28T01:46:23;95418.03;;;19.31;100.00
11198;BME280;5655;48.744;9.162;2023-07-28T01:48:48;95414.75;;;19.36;100.00
11198;BME280;5655;48.744;9.162;2023-07-28T01:51:13;95413.16;;;19.26;100.00
11198;BME280;5655;48.744;9.162;2023-07-28T01:53:39;95403.50;;;19.25;100.00
11198;BME280;5655;48.744;9.162;2023-07-28T01:56:04;95411.69;;;19.34;100.00
11198;BME280;5655;48.744;9.162;2023-07-28T01:58:29;95407.22;;;19.40;100.00
11198;BME280;5655;48.744;9.162;2023-07-28T02:00:55;95403.56;;;19.34;100.00
11198;BME280;5655;48.744;9.162;2023-07-28T02:03:20;95398.97;;;19.22;100.00
11198;BME280;5655;48.744;9.162;2023-07-28T02:05:45;95396.75;;;19.30;100.00
11198;BME280;5655;48.744;9.162;2023-07-28T02:08:11;95400.22;;;19.30;100.00
11198;BME280;5655;48.744;9.162;2023-07-28T02:10:36;95388.38;;;19.15;100.00
11198;BME280;5655;48.744;9.162;2023-07-28T02:13:01;95380.22;;;19.37;100.00
11198;BME280;5655;48.744;9.162;2023-07-28T02:15:27;95387.16;;;19.60;100.00
11198;BME280;5655;48.744;9.162;2023-07-28T02:17:52;95390.75;;;19.57;100.00
11198;BME280;5655;48.744;9.162;2023-07-28T02:20:17;95371.22;;;19.18;100.00
11198;BME280;5655;48.744;9.162;2023-07-28T02:22:43;95355.28;;;18.86;100.00
11198;BME280;5655;48.744;9.162;2023-07-28T02:25:09;95373.72;;;19.13;100.00
11198;BME280;5655;48.744;9.162;2023-07-28T02:27:35;95375.88;;;18.96;100.00
11198;BME280;5655;48.744;9.162;2023-07-28T02:30:00;95382.63;;;19.13;100.00
11198;BME280;5655;48.744;9.162;2023-07-28T02:32:27;95380.81;;;19.10;100.00
11198;BME280;5655;48.744;9.162;2023-07-28T02:34:53;95377.53;;;19.15;100.00
11198;BME280;5655;48.744;9.162;2023-07-28T02:37:19;95388.38;;;19.15;100.00
11198;BME280;5655;48.744;9.162;2023-07-28T02:39:44;95389.44;;;19.39;100.00
11198;BME280;5655;48.744;9.162;2023-07-28T02:42:09;95397.06;;;19.32;100.00
11198;BME280;5655;48.744;9.162;2023-07-28T02:44:35;95391.72;;;19.19;100.00
11198;BME280;5655;48.744;9.162;2023-07-28T02:47:00;95395.41;;;19.34;100.00
11198;BME280;5655;48.744;9.162;2023-07-28T02:49:26;95405.78;;;19.48;100.00
11198;BME280;5655;48.744;9.162;2023-07-28T02:51:51;95406.78;;;19.42;100.00
11198;BME280;5655;48.744;9.162;2023-07-28T02:54:16;95407.31;;;19.50;100.00
11198;BME280;5655;48.744;9.162;2023-07-28T02:56:42;95415.75;;;19.52;100.00
11198;BME280;5655;48.744;9.162;2023-07-28T02:59:07;95413.38;;;19.54;100.00
11198;BME280;5655;48.744;9.162;2023-07-28T03:01:32;95423.06;;;19.64;100.00
11198;BME280;5655;48.744;9.162;2023-07-28T03:04:02;95424.22;;;19.54;100.00
11198;BME280;5655;48.744;9.162;2023-07-28T03:06:27;95430.00;;;19.65;100.00
11198;BME280;5655;48.744;9.162;2023-07-28T03:08:53;95432.31;;;19.44;100.00
11198;BME280;5655;48.744;9.162;2023-07-28T03:11:18;95429.34;;;19.52;100.00
11198;BME280;5655;48.744;9.162;2023-07-28T03:13:44;95441.78;;;19.62;100.00
11198;BME280;5655;48.744;9.162;2023-07-28T03:16:09;95443.66;;;19.74;100.00
11198;BME280;5655;48.744;9.162;2023-07-28T03:18:34;95445.53;;;19.64;100.00
11198;BME280;5655;48.744;9.162;2023-07-28T03:21:00;95454.94;;;19.72;100.00
11198;BME280;5655;48.744;9.162;2023-07-28T03:23:25;95442.72;;;19.46;100.00
11198;BME280;5655;48.744;9.162;2023-07-28T03:25:51;95448.19;;;19.55;100.00
11198;BME280;5655;48.744;9.162;2023-07-28T03:28:17;95445.16;;;19.75;100.00
11198;BME280;5655;48.744;9.162;2023-07-28T03:30:42;95452.75;;;19.80;100.00
11198;BME280;5655;48.744;9.162;2023-07-28T03:33:07;95449.59;;;19.60;100.00
11198;BME280;5655;48.744;9.162;2023-07-28T03:35:33;95454.47;;;19.96;100.00
11198;BME280;5655;48.744;9.162;2023-07-28T03:37:58;95473.00;;;20.19;100.00
11198;BME280;5655;48.744;9.162;2023-07-28T03:40:23;95467.97;;;20.08;100.00
11198;BME280;5655;48.744;9.162;2023-07-28T03:42:49;95479.94;;;20.20;100.00
11198;BME280;5655;48.744;9.162;2023-07-28T03:45:14;95478.56;;;20.15;100.00
11198;BME280;5655;48.744;9.162;2023-07-28T03:47:39;95493.06;;;20.21;100.00
11198;BME280;5655;48.744;9.162;2023-07-28T03:50:05;95484.84;;;20.03;100.00
11198;BME280;5655;48.744;9.162;2023-07-28T03:52:31;95496.66;;;20.09;100.00
11198;BME280;5655;48.744;9.162;2023-07-28T03:54:56;95495.06;;;19.99;100.00
11198;BME280;5655;48.744;9.162;2023-07-28T03:57:21;95469.91;;;19.77;100.00
11198;BME280;5655;48.744;9.162;2023-07-28T03:59:47;95459.59;;;19.63;100.00
11198;BME280;5655;48.744;9.162;2023-07-28T04:02:12;95468.66;;;19.69;100.00
11198;BME280;5655;48.744;9.162;2023-07-28T04:04:37;95484.25;;;19.56;100.00
11198;BME280;5655;48.744;9.162;2023-07-28T04:07:03;95478.38;;;19.57;100.00
11198;BME280;5655;48.744;9.162;2023-07-28T04:09:28;95489.88;;;19.83;100.00
11198;BME280;5655;48.744;9.162;2023-07-28T04:11:53;95488.16;;;19.55;100.00
11198;BME280;5655;48.744;9.162;2023-07-28T04:14:19;95492.03;;;19.66;100.00
11198;BME280;5655;48.744;9.162;2023-07-28T04:16:44;95482.91;;;19.60;100.00
11198;BME280;5655;48.744;9.162;2023-07-28T04:19:09;95481.03;;;19.70;100.00
11198;BME280;5655;48.744;9.162;2023-07-28T04:21:35;95477.06;;;19.62;100.00
11198;BME280;5655;48.744;9.162;2023-07-28T04:26:25;95483.00;;;20.00;100.00
11198;BME280;5655;48.744;9.162;2023-07-28T04:28:51;95483.63;;;20.04;100.00
11198;BME280;5655;48.744;9.162;2023-07-28T04:31:16;95478.34;;;20.01;100.00
11198;BME280;5655;48.744;9.162;2023-07-28T04:33:42;95471.25;;;20.03;100.00
11198;BME280;5655;48.744;9.162;2023-07-28T04:36:08;95476.88;;;20.09;100.00
11198;BME280;5655;48.744;9.162;2023-07-28T04:38:33;95457.50;;;19.67;100.00
11198;BME280;5655;48.744;9.162;2023-07-28T04:40:59;95462.81;;;20.01;100.00
11198;BME280;5655;48.744;9.162;2023-07-28T04:43:24;95472.38;;;20.15;100.00
11198;BME280;5655;48.744;9.162;2023-07-28T04:45:49;95458.66;;;19.87;100.00
11198;BME280;5655;48.744;9.162;2023-07-28T04:48:14;95457.66;;;19.72;100.00
11198;BME280;5655;48.744;9.162;2023-07-28T04:50:40;95463.00;;;19.85;100.00
11198;BME280;5655;48.744;9.162;2023-07-28T04:53:05;95463.31;;;19.87;100.00
11198;BME280;5655;48.744;9.162;2023-07-28T04:55:30;95464.84;;;19.88;100.00
11198;BME280;5655;48.744;9.162;2023-07-28T04:57:56;95472.31;;;19.75;100.00
11198;BME280;5655;48.744;9.162;2023-07-28T05:00:22;95458.25;;;19.98;100.00
11198;BME280;5655;48.744;9.162;2023-07-28T05:02:48;95457.13;;;19.86;100.00
11198;BME280;5655;48.744;9.162;2023-07-28T05:05:13;95460.41;;;19.81;100.00
11198;BME280;5655;48.744;9.162;2023-07-28T05:07:38;95454.75;;;19.88;100.00
11198;BME280;5655;48.744;9.162;2023-07-28T05:10:04;95456.03;;;19.75;100.00
11198;BME280;5655;48.744;9.162;2023-07-28T05:12:29;95453.88;;;19.70;100.00
11198;BME280;5655;48.744;9.162;2023-07-28T05:14:55;95448.13;;;19.68;100.00
11198;BME280;5655;48.744;9.162;2023-07-28T05:17:20;95453.38;;;19.62;100.00
11198;BME280;5655;48.744;9.162;2023-07-28T05:19:45;95455.22;;;19.96;100.00
11198;BME280;5655;48.744;9.162;2023-07-28T05:22:10;95451.72;;;19.65;100.00
11198;BME280;5655;48.744;9.162;2023-07-28T05:24:36;95447.28;;;19.49;100.00
11198;BME280;5655;48.744;9.162;2023-07-28T05:27:01;95439.63;;;19.57;100.00
11198;BME280;5655;48.744;9.162;2023-07-28T05:29:27;95434.19;;;19.57;100.00
11198;BME280;5655;48.744;9.162;2023-07-28T05:31:52;95438.44;;;19.58;100.00
11198;BME280;5655;48.744;9.162;2023-07-28T05:34:17;95437.25;;;19.59;100.00
11198;BME280;5655;48.744;9.162;2023-07-28T05:36:43;95437.97;;;19.59;100.00
11198;BME280;5655;48.744;9.162;2023-07-28T05:39:09;95437.47;;;19.52;100.00
11198;BME280;5655;48.744;9.162;2023-07-28T05:41:34;95433.56;;;19.53;100.00
11198;BME280;5655;48.744;9.162;2023-07-28T05:44:00;95431.66;;;19.62;100.00
11198;BME280;5655;48.744;9.162;2023-07-28T05:46:25;95427.88;;;19.60;100.00
11198;BME280;5655;48.744;9.162;2023-07-28T05:48:50;95432.09;;;19.61;100.00
11198;BME280;5655;48.744;9.162;2023-07-28T05:51:16;95427.72;;;19.63;100.00
11198;BME280;5655;48.744;9.162;2023-07-28T05:53:41;95438.72;;;19.60;100.00
11198;BME280;5655;48.744;9.162;2023-07-28T05:56:06;95417.91;;;19.57;100.00
11198;BME280;5655;48.744;9.162;2023-07-28T05:58:32;95418.50;;;19.82;100.00
11198;BME280;5655;48.744;9.162;2023-07-28T06:00:57;95421.03;;;19.77;100.00
11198;BME280;5655;48.744;9.162;2023-07-28T06:03:23;95430.34;;;19.67;100.00
11198;BME280;5655;48.744;9.162;2023-07-28T06:05:48;95423.97;;;19.61;100.00
11198;BME280;5655;48.744;9.162;2023-07-28T06:08:13;95434.34;;;19.84;100.00
11198;BME280;5655;48.744;9.162;2023-07-28T06:10:39;95435.88;;;19.41;100.00
11198;BME280;5655;48.744;9.162;2023-07-28T06:13:04;95437.66;;;19.57;100.00
11198;BME280;5655;48.744;9.162;2023-07-28T06:15:30;95428.44;;;19.55;100.00
11198;BME280;5655;48.744;9.162;2023-07-28T06:17:55;95434.81;;;19.61;100.00
11198;BME280;5655;48.744;9.162;2023-07-28T06:20:20;95448.97;;;19.56;100.00
11198;BME280;5655;48.744;9.162;2023-07-28T06:22:46;95437.94;;;19.81;100.00
11198;BME280;5655;48.744;9.162;2023-07-28T06:25:11;95442.03;;;19.85;100.00
11198;BME280;5655;48.744;9.162;2023-07-28T06:27:36;95433.19;;;19.94;100.00
11198;BME280;5655;48.744;9.162;2023-07-28T06:30:04;95431.94;;;19.86;100.00
11198;BME280;5655;48.744;9.162;2023-07-28T06:32:30;95452.28;;;19.81;100.00
11198;BME280;5655;48.744;9.162;2023-07-28T06:34:56;95437.41;;;19.95;100.00
11198;BME280;5655;48.744;9.162;2023-07-28T06:37:22;95462.44;;;19.90;100.00
11198;BME280;5655;48.744;9.162;2023-07-28T06:39:48;95462.00;;;19.91;100.00
11198;BME280;5655;48.744;9.162;2023-07-28T06:42:14;95472.44;;;19.93;100.00
11198;BME280;5655;48.744;9.162;2023-07-28T06:44:39;95474.53;;;19.98;100.00
11198;BME280;5655;48.744;9.162;2023-07-28T06:47:05;95478.09;;;19.86;100.00
11198;BME280;5655;48.744;9.162;2023-07-28T06:49:30;95479.91;;;19.89;100.00
11198;BME280;5655;48.744;9.162;2023-07-28T06:51:55;95472.50;;;20.11;100.00
11198;BME280;5655;48.744;9.162;2023-07-28T06:54:21;95474.78;;;20.13;100.00
11198;BME280;5655;48.744;9.162;2023-07-28T06:56:46;95472.63;;;20.08;100.00
11198;BME280;5655;48.744;9.162;2023-07-28T06:59:11;95467.44;;;20.22;100.00
11198;BME280;5655;48.744;9.162;2023-07-28T07:01:37;95466.72;;;20.31;100.00
11198;BME280;5655;48.744;9.162;2023-07-28T07:04:02;95479.34;;;20.25;100.00
11198;BME280;5655;48.744;9.162;2023-07-28T07:06:29;95483.19;;;20.36;100.00
11198;BME280;5655;48.744;9.162;2023-07-28T07:08:55;95484.31;;;20.48;100.00
11198;BME280;5655;48.744;9.162;2023-07-28T07:11:20;95476.88;;;20.40;100.00
11198;BME280;5655;48.744;9.162;2023-07-28T07:13:46;95479.16;;;20.50;100.00
11198;BME280;5655;48.744;9.162;2023-07-28T07:16:15;95459.56;;;20.24;100.00
11198;BME280;5655;48.744;9.162;2023-07-28T07:18:42;95473.28;;;20.52;100.00
11198;BME280;5655;48.744;9.162;2023-07-28T07:21:07;95478.72;;;20.52;100.00
11198;BME280;5655;48.744;9.162;2023-07-28T07:23:32;95487.78;;;20.49;100.00
11198;BME280;5655;48.744;9.162;2023-07-28T07:25:58;95483.56;;;20.48;100.00
11198;BME280;5655;48.744;9.162;2023-07-28T07:28:23;95481.41;;;20.43;100.00
11198;BME280;5655;48.744;9.162;2023-07-28T07:30:48;95486.91;;;20.61;100.00
11198;BME280;5655;48.744;9.162;2023-07-28T07:33:13;95495.97;;;20.67;100.00
11198;BME280;5655;48.744;9.162;2023-07-28T07:35:39;95493.50;;;21.00;100.00
11198;BME280;5655;48.744;9.162;2023-07-28T07:38:05;95507.25;;;20.96;100.00
11198;BME280;5655;48.744;9.162;2023-07-28T07:40:35;95503.91;;;20.83;100.00
11198;BME280;5655;48.744;9.162;2023-07-28T07:43:00;95509.66;;;20.94;100.00
11198;BME280;5655;48.744;9.162;2023-07-28T07:45:28;95523.72;;;21.02;100.00
11198;BME280;5655;48.744;9.162;2023-07-28T07:47:53;95520.91;;;21.23;100.00
11198;BME280;5655;48.744;9.162;2023-07-28T07:50:20;95511.94;;;20.96;100.00
11198;BME280;5655;48.744;9.162;2023-07-28T07:52:47;95519.19;;;21.08;100.00
11198;BME280;5655;48.744;9.162;2023-07-28T07:55:12;95520.38;;;20.79;100.00
11198;BME280;5655;48.744;9.162;2023-07-28T07:57:37;95516.63;;;20.95;100.00
11198;BME280;5655;48.744;9.162;2023-07-28T08:00:03;95512.34;;;20.85;100.00
11198;BME280;5655;48.744;9.162;2023-07-28T08:02:28;95528.09;;;20.99;100.00
11198;BME280;5655;48.744;9.162;2023-07-28T08:04:54;95534.22;;;21.12;100.00
11198;BME280;5655;48.744;9.162;2023-07-28T08:07:19;95516.25;;;20.66;100.00
11198;BME280;5655;48.744;9.162;2023-07-28T08:09:45;95533.25;;;21.06;100.00
11198;BME280;5655;48.744;9.162;2023-07-28T08:12:11;95531.13;;;21.01;100.00
11198;BME280;5655;48.744;9.162;2023-07-28T08:14:37;95527.97;;;21.03;100.00
11198;BME280;5655;48.744;9.162;2023-07-28T08:17:02;95544.66;;;21.32;100.00
11198;BME280;5655;48.744;9.162;2023-07-28T08:19:28;95536.19;;;21.30;100.00
11198;BME280;5655;48.744;9.162;2023-07-28T08:21:53;95550.88;;;21.51;100.00
11198;BME280;5655;48.744;9.162;2023-07-28T08:24:18;95551.94;;;21.62;100.00
11198;BME280;5655;48.744;9.162;2023-07-28T08:26:45;95546.03;;;21.82;100.00
11198;BME280;5655;48.744;9.162;2023-07-28T08:29:10;95548.47;;;21.98;100.00
11198;BME280;5655;48.744;9.162;2023-07-28T08:31:36;95561.75;;;22.05;100.00
11198;BME280;5655;48.744;9.162;2023-07-28T08:34:01;95582.66;;;22.17;100.00
11198;BME280;5655;48.744;9.162;2023-07-28T08:36:28;95576.75;;;22.10;100.00
11198;BME280;5655;48.744;9.162;2023-07-28T08:38:53;95596.16;;;21.94;100.00
11198;BME280;5655;48.744;9.162;2023-07-28T08:41:19;95599.91;;;22.05;100.00
11198;BME280;5655;48.744;9.162;2023-07-28T08:43:44;95605.81;;;22.22;100.00
11198;BME280;5655;48.744;9.162;2023-07-28T08:46:10;95604.59;;;22.23;100.00
11198;BME280;5655;48.744;9.162;2023-07-28T08:48:35;95597.19;;;22.14;100.00
11198;BME280;5655;48.744;9.162;2023-07-28T08:51:02;95592.75;;;22.35;100.00
11198;BME280;5655;48.744;9.162;2023-07-28T08:53:29;95574.16;;;22.25;100.00
11198;BME280;5655;48.744;9.162;2023-07-28T08:55:54;95585.63;;;22.38;100.00
11198;BME280;5655;48.744;9.162;2023-07-28T08:58:21;95586.69;;;22.40;100.00
11198;BME280;5655;48.744;9.162;2023-07-28T09:00:48;95596.53;;;22.38;100.00
11198;BME280;5655;48.744;9.162;2023-07-28T09:03:17;95595.81;;;22.28;100.00
11198;BME280;5655;48.744;9.162;2023-07-28T09:05:43;95604.72;;;22.47;100.00
11198;BME280;5655;48.744;9.162;2023-07-28T09:08:09;95611.09;;;22.35;100.00
11198;BME280;5655;48.744;9.162;2023-07-28T09:13:14;95606.25;;;22.39;100.00
11198;BME280;5655;48.744;9.162;2023-07-28T09:15:40;95618.06;;;22.27;100.00
11198;BME280;5655;48.744;9.162;2023-07-28T09:18:09;95615.00;;;22.52;100.00
11198;BME280;5655;48.744;9.162;2023-07-28T09:20:36;95605.00;;;22.40;100.00
11198;BME280;5655;48.744;9.162;2023-07-28T09:23:03;95606.53;;;22.41;100.00
11198;BME280;5655;48.744;9.162;2023-07-28T09:25:30;95609.41;;;22.37;100.00
11198;BME280;5655;48.744;9.162;2023-07-28T09:27:57;95610.19;;;22.38;100.00
11198;BME280;5655;48.744;9.162;2023-07-28T09:30:24;95605.66;;;22.35;100.00
11198;BME280;5655;48.744;9.162;2023-07-28T09:32:51;95595.59;;;22.50;100.00
11198;BME280;5655;48.744;9.162;2023-07-28T09:35:17;95598.91;;;22.63;100.00
11198;BME280;5655;48.744;9.162;2023-07-28T09:37:45;95610.59;;;22.54;100.00
11198;BME280;5655;48.744;9.162;2023-07-28T09:40:12;95612.09;;;22.74;100.00
11198;BME280;5655;48.744;9.162;2023-07-28T09:42:39;95620.09;;;22.77;100.00
11198;BME280;5655;48.744;9.162;2023-07-28T09:45:06;95619.06;;;23.08;100.00
11198;BME280;5655;48.744;9.162;2023-07-28T09:47:34;95612.91;;;23.22;100.00
11198;BME280;5655;48.744;9.162;2023-07-28T09:50:05;95606.81;;;23.27;100.00
11198;BME280;5655;48.744;9.162;2023-07-28T09:52:34;95606.63;;;23.06;100.00
11198;BME280;5655;48.744;9.162;2023-07-28T09:55:06;95623.28;;;23.41;100.00
11198;BME280;5655;48.744;9.162;2023-07-28T09:57:36;95629.69;;;23.38;100.00
11198;BME280;5655;48.744;9.162;2023-07-28T10:00:02;95622.53;;;23.41;100.00
11198;BME280;5655;48.744;9.162;2023-07-28T10:02:29;95616.94;;;23.68;100.00
11198;BME280;5655;48.744;9.162;2023-07-28T10:04:55;95626.66;;;23.60;100.00
11198;BME280;5655;48.744;9.162;2023-07-28T10:07:21;95634.53;;;23.67;100.00
11198;BME280;5655;48.744;9.162;2023-07-28T10:09:47;95642.38;;;23.50;100.00
11198;BME280;5655;48.744;9.162;2023-07-28T10:12:23;95656.28;;;23.85;100.00
11198;BME280;5655;48.744;9.162;2023-07-28T10:15:00;95644.72;;;23.34;100.00
11198;BME280;5655;48.744;9.162;2023-07-28T10:17:34;95648.44;;;23.55;100.00
11198;BME280;5655;48.744;9.162;2023-07-28T10:20:03;95649.41;;;23.66;100.00
11198;BME280;5655;48.744;9.162;2023-07-28T10:22:45;95660.44;;;23.48;100.00
11198;BME280;5655;48.744;9.162;2023-07-28T10:25:11;95662.38;;;23.24;100.00
11198;BME280;5655;48.744;9.162;2023-07-28T10:27:38;95652.78;;;23.28;100.00
11198;BME280;5655;48.744;9.162;2023-07-28T10:30:09;95652.34;;;23.30;100.00
11198;BME280;5655;48.744;9.162;2023-07-28T10:32:38;95663.19;;;23.39;100.00
11198;BME280;5655;48.744;9.162;2023-07-28T10:37:44;95687.03;;;22.96;100.00
11198;BME280;5655;48.744;9.162;2023-07-28T10:42:52;95682.50;;;22.93;100.00
11198;BME280;5655;48.744;9.162;2023-07-28T10:45:18;95693.06;;;23.10;100.00
11198;BME280;5655;48.744;9.162;2023-07-28T10:47:44;95703.09;;;23.03;100.00
11198;BME280;5655;48.744;9.162;2023-07-28T10:50:09;95697.59;;;23.13;100.00
11198;BME280;5655;48.744;9.162;2023-07-28T10:52:43;95704.88;;;23.16;100.00
11198;BME280;5655;48.744;9.162;2023-07-28T10:55:19;95702.19;;;23.39;100.00
11198;BME280;5655;48.744;9.162;2023-07-28T10:57:49;95706.16;;;23.71;100.00
11198;BME280;5655;48.744;9.162;2023-07-28T11:00:17;95711.75;;;24.01;100.00
11198;BME280;5655;48.744;9.162;2023-07-28T11:02:50;95709.88;;;24.07;100.00
11198;BME280;5655;48.744;9.162;2023-07-28T11:05:29;95716.78;;;24.55;100.00
11198;BME280;5655;48.744;9.162;2023-07-28T11:07:57;95716.38;;;24.71;100.00
11198;BME280;5655;48.744;9.162;2023-07-28T11:10:23;95730.44;;;24.79;100.00
11198;BME280;5655;48.744;9.162;2023-07-28T11:12:51;95727.63;;;24.88;100.00
11198;BME280;5655;48.744;9.162;2023-07-28T11:15:18;95732.88;;;24.77;100.00
11198;BME280;5655;48.744;9.162;2023-07-28T11:17:48;95723.09;;;24.85;100.00
11198;BME280;5655;48.744;9.162;2023-07-28T11:22:39;95729.31;;;24.85;100.00
11198;BME280;5655;48.744;9.162;2023-07-28T11:25:06;95710.81;;;25.10;100.00
11198;BME280;5655;48.744;9.162;2023-07-28T11:27:34;95732.13;;;25.20;100.00
11198;BME280;5655;48.744;9.162;2023-07-28T11:30:01;95725.53;;;25.12;100.00
11198;BME280;5655;48.744;9.162;2023-07-28T11:32:28;95727.63;;;25.03;100.00
11198;BME280;5655;48.744;9.162;2023-07-28T11:34:55;95726.47;;;24.80;100.00
11198;BME280;5655;48.744;9.162;2023-07-28T11:37:20;95722.06;;;24.97;100.00
11198;BME280;5655;48.744;9.162;2023-07-28T11:39:46;95718.19;;;25.04;100.00
11198;BME280;5655;48.744;9.162;2023-07-28T11:42:11;95722.91;;;25.18;100.00
11198;BME280;5655;48.744;9.162;2023-07-28T11:44:37;95730.00;;;25.10;100.00
11198;BME280;5655;48.744;9.162;2023-07-28T11:47:05;95728.38;;;24.89;100.00
11198;BME280;5655;48.744;9.162;2023-07-28T11:49:30;95720.03;;;24.68;100.00
11198;BME280;5655;48.744;9.162;2023-07-28T11:51:56;95732.72;;;24.80;100.00
11198;BME280;5655;48.744;9.162;2023-07-28T11:54:25;95736.75;;;24.70;100.00
11198;BME280;5655;48.744;9.162;2023-07-28T11:56:53;95740.19;;;24.42;100.00
11198;BME280;5655;48.744;9.162;2023-07-28T11:59:19;95744.66;;;24.15;100.00
11198;BME280;5655;48.744;9.162;2023-07-28T12:01:58;95739.78;;;24.10;100.00
11198;BME280;5655;48.744;9.162;2023-07-28T12:04:25;95735.97;;;23.60;100.00
11198;BME280;5655;48.744;9.162;2023-07-28T12:07:03;95733.41;;;23.57;100.00
11198;BME280;5655;48.744;9.162;2023-07-28T12:09:31;95728.66;;;23.24;100.00
11198;BME280;5655;48.744;9.162;2023-07-28T12:11:59;95731.19;;;23.37;100.00
11198;BME280;5655;48.744;9.162;2023-07-28T12:14:34;95718.34;;;23.61;100.00
11198;BME280;5655;48.744;9.162;2023-07-28T12:17:00;95725.41;;;23.44;100.00
11198;BME280;5655;48.744;9.162;2023-07-28T12:19:26;95733.13;;;23.55;100.00
11198;BME280;5655;48.744;9.162;2023-07-28T12:21:52;95723.19;;;23.66;100.00
11198;BME280;5655;48.744;9.162;2023-07-28T12:24:17;95716.56;;;23.58;100.00
11198;BME280;5655;48.744;9.162;2023-07-28T12:26:42;95722.47;;;23.57;100.00
11198;BME280;5655;48.744;9.162;2023-07-28T12:29:08;95712.78;;;23.79;100.00
11198;BME280;5655;48.744;9.162;2023-07-28T12:31:33;95718.25;;;23.79;100.00
11198;BME280;5655;48.744;9.162;2023-07-28T12:33:59;95726.41;;;23.88;100.00
11198;BME280;5655;48.744;9.162;2023-07-28T12:36:24;95714.59;;;23.82;100.00
11198;BME280;5655;48.744;9.162;2023-07-28T12:38:49;95707.69;;;23.72;100.00
11198;BME280;5655;48.744;9.162;2023-07-28T12:41:15;95702.91;;;24.06;100.00
11198;BME280;5655;48.744;9.162;2023-07-28T12:43:40;95716.41;;;24.33;100.00
11198;BME280;5655;48.744;9.162;2023-07-28T12:46:06;95715.22;;;24.25;100.00
11198;BME280;5655;48.744;9.162;2023-07-28T12:48:31;95715.28;;;24.39;100.00
11198;BME280;5655;48.744;9.162;2023-07-28T12:50:56;95717.56;;;24.56;100.00
11198;BME280;5655;48.744;9.162;2023-07-28T12:53:22;95732.94;;;24.53;100.00
11198;BME280;5655;48.744;9.162;2023-07-28T12:55:47;95723.22;;;24.37;100.00
11198;BME280;5655;48.744;9.162;2023-07-28T12:58:12;95726.78;;;24.29;100.00
11198;BME280;5655;48.744;9.162;2023-07-28T13:00:38;95722.16;;;24.11;100.00
11198;BME280;5655;48.744;9.162;2023-07-28T13:03:06;95715.47;;;24.36;100.00
11198;BME280;5655;48.744;9.162;2023-07-28T13:05:31;95728.06;;;24.19;100.00
11198;BME280;5655;48.744;9.162;2023-07-28T13:07:57;95729.72;;;24.16;100.00